EHGG/GRQ METAR and TAF weather

Enter ICAO airport designator
Station Type Date Time Source
EHGG METAR 2022/01/26 20:55 UTC NOAA

EHGG 262055Z AUTO 24016KT 210V270 7000 BKN009/// OVC010/// 06/04 Q1024 BECMG BKN012


Station Type Date Time Source
EHGG Decoded METAR 2022/01/26 20:55 UTC NOAA

Groningen Airport Eelde, Netherlands (EHGG) 53-08N 006-35E 4M
Jan 26, 2022 - 03:55 PM EST / 2022.01.26 2055 UTC
Wind: from the WSW (240 degrees) at 18 MPH (16 KT) (direction variable):0
Visibility: 4 mile(s):0
Sky conditions: overcast
Temperature: 42 F (6 C)
Dew Point: 39 F (4 C)
Relative Humidity: 86%
Pressure (altimeter): 30.24 in. Hg (1024 hPa)
ob: EHGG 262055Z AUTO 24016KT 210V270 7000 BKN009/// OVC010/// 06/04 Q1024 BECMG BKN012
cycle: 21

Station Type Date Time Source
EHGG TAF 2022/01/26 18:27 UTC NOAA

TAF EHGG 261715Z 2618/2724 24012KT 6000 BKN009
BECMG 2619/2621 BKN012
BECMG 2621/2624 24017G27KT 9999 BKN018
BECMG 2705/2708 6000 RADZ BKN012
TEMPO 2706/2711 4500 -DZRA BKN008
BECMG 2709/2712 29015G25KT 9999 NSW SCT025 PROB30
TEMPO 2718/2724 7000 -SHRA FEW020CB

Example: see airport list